sensor_id;sensor_type;location;lat;lon;timestamp;temperature;humidity
11093;DHT22;5600;50.864;6.102;2023-04-06T00:05:03;-1.20;99.90
11093;DHT22;5600;50.864;6.102;2023-04-06T00:11:05;0.70;99.90
11093;DHT22;5600;50.864;6.102;2023-04-06T00:14:06;0.60;99.90
11093;DHT22;5600;50.864;6.102;2023-04-06T00:20:08;0.60;99.90
11093;DHT22;5600;50.864;6.102;2023-04-06T00:23:09;0.60;99.90
11093;DHT22;5600;50.864;6.102;2023-04-06T00:26:10;0.60;99.90
11093;DHT22;5600;50.864;6.102;2023-04-06T00:29:13;-1.90;99.90
11093;DHT22;5600;50.864;6.102;2023-04-06T00:35:15;0.60;99.90
11093;DHT22;5600;50.864;6.102;2023-04-06T00:38:16;0.50;99.90
11093;DHT22;5600;50.864;6.102;2023-04-06T00:41:17;0.50;99.90
11093;DHT22;5600;50.864;6.102;2023-04-06T00:44:19;0.50;99.90
11093;DHT22;5600;50.864;6.102;2023-04-06T00:47:21;0.50;99.90
11093;DHT22;5600;50.864;6.102;2023-04-06T00:50:22;0.40;99.90
11093;DHT22;5600;50.864;6.102;2023-04-06T00:53:22;0.40;99.90
11093;DHT22;5600;50.864;6.102;2023-04-06T00:56:24;0.30;99.90
11093;DHT22;5600;50.864;6.102;2023-04-06T01:02:30;0.20;99.90
11093;DHT22;5600;50.864;6.102;2023-04-06T01:05:35;0.20;99.90
11093;DHT22;5600;50.864;6.102;2023-04-06T01:08:41;0.00;99.90
11093;DHT22;5600;50.864;6.102;2023-04-06T01:11:51;0.00;99.90
11093;DHT22;5600;50.864;6.102;2023-04-06T01:14:56;0.00;99.90
11093;DHT22;5600;50.864;6.102;2023-04-06T01:17:57;0.10;99.90
11093;DHT22;5600;50.864;6.102;2023-04-06T01:20:57;0.00;99.90
11093;DHT22;5600;50.864;6.102;2023-04-06T01:24:01;0.00;99.90
11093;DHT22;5600;50.864;6.102;2023-04-06T01:27:09;0.00;99.90
11093;DHT22;5600;50.864;6.102;2023-04-06T01:33:31;-0.10;99.90
11093;DHT22;5600;50.864;6.102;2023-04-06T01:39:54;-2.40;99.90
11093;DHT22;5600;50.864;6.102;2023-04-06T01:43:09;-0.10;99.90
11093;DHT22;5600;50.864;6.102;2023-04-06T01:49:22;-0.20;99.90
11093;DHT22;5600;50.864;6.102;2023-04-06T01:52:29;-0.10;99.90
11093;DHT22;5600;50.864;6.102;2023-04-06T01:59:01;-0.10;99.90
11093;DHT22;5600;50.864;6.102;2023-04-06T02:05:12;-0.20;99.90
11093;DHT22;5600;50.864;6.102;2023-04-06T02:08:14;-0.20;99.90
11093;DHT22;5600;50.864;6.102;2023-04-06T02:11:14;-0.20;99.90
11093;DHT22;5600;50.864;6.102;2023-04-06T02:14:24;-0.30;99.90
11093;DHT22;5600;50.864;6.102;2023-04-06T02:17:27;-0.40;99.90
11093;DHT22;5600;50.864;6.102;2023-04-06T02:23:29;-0.40;99.90
11093;DHT22;5600;50.864;6.102;2023-04-06T02:26:31;-0.40;99.90
11093;DHT22;5600;50.864;6.102;2023-04-06T02:47:42;-0.50;99.90
11093;DHT22;5600;50.864;6.102;2023-04-06T02:53:45;-0.60;99.90
11093;DHT22;5600;50.864;6.102;2023-04-06T02:56:54;-0.60;99.90
11093;DHT22;5600;50.864;6.102;2023-04-06T03:03:06;-0.50;99.90
11093;DHT22;5600;50.864;6.102;2023-04-06T03:21:50;-0.50;99.90
11093;DHT22;5600;50.864;6.102;2023-04-06T03:30:55;-0.40;99.90
11093;DHT22;5600;50.864;6.102;2023-04-06T03:46:27;-0.20;99.90
11093;DHT22;5600;50.864;6.102;2023-04-06T03:49:30;-0.10;99.90
11093;DHT22;5600;50.864;6.102;2023-04-06T03:55:34;0.00;99.90
11093;DHT22;5600;50.864;6.102;2023-04-06T04:16:43;0.30;99.90
11093;DHT22;5600;50.864;6.102;2023-04-06T04:19:44;0.40;99.90
11093;DHT22;5600;50.864;6.102;2023-04-06T04:25:46;0.40;99.90
11093;DHT22;5600;50.864;6.102;2023-04-06T04:31:49;0.50;99.90
11093;DHT22;5600;50.864;6.102;2023-04-06T04:41:08;0.50;99.90
11093;DHT22;5600;50.864;6.102;2023-04-06T04:44:12;0.50;99.90
11093;DHT22;5600;50.864;6.102;2023-04-06T04:50:18;0.70;99.90
11093;DHT22;5600;50.864;6.102;2023-04-06T04:56:24;0.70;99.90
11093;DHT22;5600;50.864;6.102;2023-04-06T05:05:50;0.80;99.90
11093;DHT22;5600;50.864;6.102;2023-04-06T05:08:52;0.80;99.90
11093;DHT22;5600;50.864;6.102;2023-04-06T05:21:05;0.90;99.90
11093;DHT22;5600;50.864;6.102;2023-04-06T05:27:18;1.00;99.90
11093;DHT22;5600;50.864;6.102;2023-04-06T05:30:19;1.10;99.90
11093;DHT22;5600;50.864;6.102;2023-04-06T05:33:23;1.20;99.90
11093;DHT22;5600;50.864;6.102;2023-04-06T05:39:42;1.30;99.90
11093;DHT22;5600;50.864;6.102;2023-04-06T05:48:46;1.50;99.90
11093;DHT22;5600;50.864;6.102;2023-04-06T05:51:49;1.60;99.90
11093;DHT22;5600;50.864;6.102;2023-04-06T05:54:50;1.70;99.90
11093;DHT22;5600;50.864;6.102;2023-04-06T05:57:51;1.80;99.90
11093;DHT22;5600;50.864;6.102;2023-04-06T06:01:00;1.90;99.90
11093;DHT22;5600;50.864;6.102;2023-04-06T06:04:10;2.00;99.90
11093;DHT22;5600;50.864;6.102;2023-04-06T06:07:14;2.10;99.90
11093;DHT22;5600;50.864;6.102;2023-04-06T06:10:19;2.20;99.90
11093;DHT22;5600;50.864;6.102;2023-04-06T06:13:21;2.30;99.90
11093;DHT22;5600;50.864;6.102;2023-04-06T06:22:28;2.60;99.90
11093;DHT22;5600;50.864;6.102;2023-04-06T06:25:29;2.70;99.90
11093;DHT22;5600;50.864;6.102;2023-04-06T06:28:32;2.90;99.90
11093;DHT22;5600;50.864;6.102;2023-04-06T06:31:32;2.00;99.90
11093;DHT22;5600;50.864;6.102;2023-04-06T06:34:33;3.00;99.90
11093;DHT22;5600;50.864;6.102;2023-04-06T06:40:41;3.50;99.90
11093;DHT22;5600;50.864;6.102;2023-04-06T06:43:42;3.70;99.90
11093;DHT22;5600;50.864;6.102;2023-04-06T06:46:44;3.80;99.90
11093;DHT22;5600;50.864;6.102;2023-04-06T06:49:45;4.00;99.90
11093;DHT22;5600;50.864;6.102;2023-04-06T06:52:45;4.30;99.90
11093;DHT22;5600;50.864;6.102;2023-04-06T06:55:46;4.50;99.90
11093;DHT22;5600;50.864;6.102;2023-04-06T06:58:49;4.70;99.90
11093;DHT22;5600;50.864;6.102;2023-04-06T07:01:50;4.70;99.90
11093;DHT22;5600;50.864;6.102;2023-04-06T07:04:50;5.00;99.90
11093;DHT22;5600;50.864;6.102;2023-04-06T07:07:52;5.20;99.90
11093;DHT22;5600;50.864;6.102;2023-04-06T07:10:53;5.50;99.90
11093;DHT22;5600;50.864;6.102;2023-04-06T07:13:56;5.70;99.90
11093;DHT22;5600;50.864;6.102;2023-04-06T07:16:57;6.00;99.90
11093;DHT22;5600;50.864;6.102;2023-04-06T07:19:57;6.20;99.90
11093;DHT22;5600;50.864;6.102;2023-04-06T07:22:58;6.40;99.90
11093;DHT22;5600;50.864;6.102;2023-04-06T07:25:58;6.60;99.90
11093;DHT22;5600;50.864;6.102;2023-04-06T07:28:59;7.00;99.90
11093;DHT22;5600;50.864;6.102;2023-04-06T07:32:01;7.30;99.90
11093;DHT22;5600;50.864;6.102;2023-04-06T07:35:02;7.50;99.90
11093;DHT22;5600;50.864;6.102;2023-04-06T07:38:03;7.80;99.90
11093;DHT22;5600;50.864;6.102;2023-04-06T07:41:05;7.90;99.90
11093;DHT22;5600;50.864;6.102;2023-04-06T07:44:07;8.10;99.90
11093;DHT22;5600;50.864;6.102;2023-04-06T07:47:08;8.30;99.90
11093;DHT22;5600;50.864;6.102;2023-04-06T07:50:09;8.40;99.90
11093;DHT22;5600;50.864;6.102;2023-04-06T07:53:11;8.50;99.90
11093;DHT22;5600;50.864;6.102;2023-04-06T07:56:13;8.60;99.90
11093;DHT22;5600;50.864;6.102;2023-04-06T07:59:15;8.90;99.90
11093;DHT22;5600;50.864;6.102;2023-04-06T08:02:16;9.20;99.90
11093;DHT22;5600;50.864;6.102;2023-04-06T08:05:17;9.40;99.90
11093;DHT22;5600;50.864;6.102;2023-04-06T08:08:18;9.60;99.90
11093;DHT22;5600;50.864;6.102;2023-04-06T08:11:20;9.90;99.90
11093;DHT22;5600;50.864;6.102;2023-04-06T08:14:21;10.10;99.90
11093;DHT22;5600;50.864;6.102;2023-04-06T08:17:21;10.10;99.90
11093;DHT22;5600;50.864;6.102;2023-04-06T08:20:22;10.30;99.90
11093;DHT22;5600;50.864;6.102;2023-04-06T08:23:23;10.40;99.90
11093;DHT22;5600;50.864;6.102;2023-04-06T08:26:23;10.50;99.90
11093;DHT22;5600;50.864;6.102;2023-04-06T08:29:24;10.60;99.90
11093;DHT22;5600;50.864;6.102;2023-04-06T08:32:25;10.70;99.90
11093;DHT22;5600;50.864;6.102;2023-04-06T08:35:26;10.70;99.90
11093;DHT22;5600;50.864;6.102;2023-04-06T08:38:27;10.70;99.90
11093;DHT22;5600;50.864;6.102;2023-04-06T08:41:27;10.70;99.90
11093;DHT22;5600;50.864;6.102;2023-04-06T08:44:29;10.80;99.90
11093;DHT22;5600;50.864;6.102;2023-04-06T08:47:30;10.90;99.90
11093;DHT22;5600;50.864;6.102;2023-04-06T08:50:32;10.90;99.90
11093;DHT22;5600;50.864;6.102;2023-04-06T08:53:33;10.90;99.90
11093;DHT22;5600;50.864;6.102;2023-04-06T08:56:37;11.10;99.90
11093;DHT22;5600;50.864;6.102;2023-04-06T08:59:39;11.40;99.90
11093;DHT22;5600;50.864;6.102;2023-04-06T09:02:43;11.30;99.90
11093;DHT22;5600;50.864;6.102;2023-04-06T09:05:45;11.30;99.90
11093;DHT22;5600;50.864;6.102;2023-04-06T09:08:49;11.30;99.90
11093;DHT22;5600;50.864;6.102;2023-04-06T09:11:51;11.20;99.90
11093;DHT22;5600;50.864;6.102;2023-04-06T09:14:52;11.20;99.90
11093;DHT22;5600;50.864;6.102;2023-04-06T09:17:53;11.20;99.90
11093;DHT22;5600;50.864;6.102;2023-04-06T09:21:03;11.10;99.90
11093;DHT22;5600;50.864;6.102;2023-04-06T09:24:04;11.10;99.90
11093;DHT22;5600;50.864;6.102;2023-04-06T09:27:05;11.10;99.90
11093;DHT22;5600;50.864;6.102;2023-04-06T09:30:10;11.20;99.90
11093;DHT22;5600;50.864;6.102;2023-04-06T09:33:23;11.20;99.90
11093;DHT22;5600;50.864;6.102;2023-04-06T09:36:35;11.20;99.90
11093;DHT22;5600;50.864;6.102;2023-04-06T09:39:38;11.20;99.90
11093;DHT22;5600;50.864;6.102;2023-04-06T09:42:42;11.20;99.90
11093;DHT22;5600;50.864;6.102;2023-04-06T09:45:43;11.30;99.90
11093;DHT22;5600;50.864;6.102;2023-04-06T09:48:44;11.40;99.90
11093;DHT22;5600;50.864;6.102;2023-04-06T09:51:47;11.50;99.90
11093;DHT22;5600;50.864;6.102;2023-04-06T09:54:50;11.50;99.90
11093;DHT22;5600;50.864;6.102;2023-04-06T09:58:18;11.60;99.90
11093;DHT22;5600;50.864;6.102;2023-04-06T10:01:21;11.60;99.90
11093;DHT22;5600;50.864;6.102;2023-04-06T10:04:33;11.60;99.90
11093;DHT22;5600;50.864;6.102;2023-04-06T10:07:38;11.70;99.90
11093;DHT22;5600;50.864;6.102;2023-04-06T10:10:39;11.80;99.90
11093;DHT22;5600;50.864;6.102;2023-04-06T10:13:40;11.90;99.90
11093;DHT22;5600;50.864;6.102;2023-04-06T10:16:42;12.00;99.90
11093;DHT22;5600;50.864;6.102;2023-04-06T10:19:55;12.10;99.90
11093;DHT22;5600;50.864;6.102;2023-04-06T10:23:04;12.10;99.90
11093;DHT22;5600;50.864;6.102;2023-04-06T10:26:05;12.10;99.90
11093;DHT22;5600;50.864;6.102;2023-04-06T10:29:12;12.10;99.90
11093;DHT22;5600;50.864;6.102;2023-04-06T10:32:13;12.10;99.90
11093;DHT22;5600;50.864;6.102;2023-04-06T10:35:15;12.10;99.90
11093;DHT22;5600;50.864;6.102;2023-04-06T10:38:16;12.10;99.90
11093;DHT22;5600;50.864;6.102;2023-04-06T10:41:22;12.10;99.90
11093;DHT22;5600;50.864;6.102;2023-04-06T10:44:25;12.00;99.90
11093;DHT22;5600;50.864;6.102;2023-04-06T10:50:29;12.10;99.90
11093;DHT22;5600;50.864;6.102;2023-04-06T10:53:33;12.00;99.90
11093;DHT22;5600;50.864;6.102;2023-04-06T10:56:36;11.80;99.90
11093;DHT22;5600;50.864;6.102;2023-04-06T10:59:42;11.70;99.90
11093;DHT22;5600;50.864;6.102;2023-04-06T11:02:42;11.70;99.90
11093;DHT22;5600;50.864;6.102;2023-04-06T11:05:44;11.70;99.90
11093;DHT22;5600;50.864;6.102;2023-04-06T11:08:45;11.70;99.90
11093;DHT22;5600;50.864;6.102;2023-04-06T11:11:46;11.70;99.90
11093;DHT22;5600;50.864;6.102;2023-04-06T11:15:13;11.70;99.90
11093;DHT22;5600;50.864;6.102;2023-04-06T11:18:17;11.70;99.90
11093;DHT22;5600;50.864;6.102;2023-04-06T11:21:18;11.50;99.90
11093;DHT22;5600;50.864;6.102;2023-04-06T11:24:21;11.50;99.90
11093;DHT22;5600;50.864;6.102;2023-04-06T11:27:22;11.50;99.90
11093;DHT22;5600;50.864;6.102;2023-04-06T11:30:23;11.50;99.90
11093;DHT22;5600;50.864;6.102;2023-04-06T11:33:23;12.90;99.90
11093;DHT22;5600;50.864;6.102;2023-04-06T11:36:27;11.30;99.90
11093;DHT22;5600;50.864;6.102;2023-04-06T11:39:29;11.20;99.90
11093;DHT22;5600;50.864;6.102;2023-04-06T11:42:30;11.10;99.90
11093;DHT22;5600;50.864;6.102;2023-04-06T11:45:41;11.00;99.90
11093;DHT22;5600;50.864;6.102;2023-04-06T11:48:45;11.00;99.90
11093;DHT22;5600;50.864;6.102;2023-04-06T11:51:46;11.00;99.90
11093;DHT22;5600;50.864;6.102;2023-04-06T11:54:49;10.90;99.90
11093;DHT22;5600;50.864;6.102;2023-04-06T11:57:49;10.90;99.90
11093;DHT22;5600;50.864;6.102;2023-04-06T12:00:51;10.80;99.90
11093;DHT22;5600;50.864;6.102;2023-04-06T12:03:53;10.70;99.90
11093;DHT22;5600;50.864;6.102;2023-04-06T12:06:54;10.80;99.90
11093;DHT22;5600;50.864;6.102;2023-04-06T12:09:55;10.80;99.90
11093;DHT22;5600;50.864;6.102;2023-04-06T12:12:56;10.70;99.90
11093;DHT22;5600;50.864;6.102;2023-04-06T12:15:56;10.40;99.90
11093;DHT22;5600;50.864;6.102;2023-04-06T12:18:57;10.40;99.90
11093;DHT22;5600;50.864;6.102;2023-04-06T12:21:58;10.30;99.90
11093;DHT22;5600;50.864;6.102;2023-04-06T12:24:58;10.40;99.90
11093;DHT22;5600;50.864;6.102;2023-04-06T12:27:59;10.50;99.90
11093;DHT22;5600;50.864;6.102;2023-04-06T12:31:00;10.60;99.90
11093;DHT22;5600;50.864;6.102;2023-04-06T12:34:02;10.80;99.90
11093;DHT22;5600;50.864;6.102;2023-04-06T12:37:03;10.90;99.90
11093;DHT22;5600;50.864;6.102;2023-04-06T12:40:04;10.90;99.90
11093;DHT22;5600;50.864;6.102;2023-04-06T12:43:05;10.90;99.90
11093;DHT22;5600;50.864;6.102;2023-04-06T12:46:06;10.80;99.90
11093;DHT22;5600;50.864;6.102;2023-04-06T12:49:07;10.50;99.90
11093;DHT22;5600;50.864;6.102;2023-04-06T12:52:08;10.30;99.90
11093;DHT22;5600;50.864;6.102;2023-04-06T12:55:09;10.20;99.90
11093;DHT22;5600;50.864;6.102;2023-04-06T12:58:09;10.00;99.90
11093;DHT22;5600;50.864;6.102;2023-04-06T13:01:11;9.90;99.90
11093;DHT22;5600;50.864;6.102;2023-04-06T13:04:14;9.70;99.90
11093;DHT22;5600;50.864;6.102;2023-04-06T13:07:15;9.60;99.90
11093;DHT22;5600;50.864;6.102;2023-04-06T13:10:16;9.60;99.90
11093;DHT22;5600;50.864;6.102;2023-04-06T13:13:18;9.50;99.90
11093;DHT22;5600;50.864;6.102;2023-04-06T13:16:18;9.50;99.90
11093;DHT22;5600;50.864;6.102;2023-04-06T13:19:19;9.50;99.90
11093;DHT22;5600;50.864;6.102;2023-04-06T13:22:20;9.50;99.90
11093;DHT22;5600;50.864;6.102;2023-04-06T13:25:21;9.50;99.90
11093;DHT22;5600;50.864;6.102;2023-04-06T13:28:22;9.40;99.90
11093;DHT22;5600;50.864;6.102;2023-04-06T13:31:22;9.30;99.90
11093;DHT22;5600;50.864;6.102;2023-04-06T13:34:23;9.20;99.90
11093;DHT22;5600;50.864;6.102;2023-04-06T13:37:24;9.10;99.90
11093;DHT22;5600;50.864;6.102;2023-04-06T13:40:24;9.10;99.90
11093;DHT22;5600;50.864;6.102;2023-04-06T13:43:25;9.00;99.90
11093;DHT22;5600;50.864;6.102;2023-04-06T13:46:27;8.90;99.90
11093;DHT22;5600;50.864;6.102;2023-04-06T13:49:28;8.90;99.90
11093;DHT22;5600;50.864;6.102;2023-04-06T13:52:35;9.00;99.90
11093;DHT22;5600;50.864;6.102;2023-04-06T13:55:36;9.00;99.90
11093;DHT22;5600;50.864;6.102;2023-04-06T13:58:37;9.10;99.90
11093;DHT22;5600;50.864;6.102;2023-04-06T14:01:37;9.10;99.90
11093;DHT22;5600;50.864;6.102;2023-04-06T14:04:38;9.10;99.90
11093;DHT22;5600;50.864;6.102;2023-04-06T14:07:39;9.00;99.90
11093;DHT22;5600;50.864;6.102;2023-04-06T14:10:41;9.00;99.90
11093;DHT22;5600;50.864;6.102;2023-04-06T14:13:42;8.90;99.90
11093;DHT22;5600;50.864;6.102;2023-04-06T14:16:43;8.90;99.90
11093;DHT22;5600;50.864;6.102;2023-04-06T14:19:47;8.90;99.90
11093;DHT22;5600;50.864;6.102;2023-04-06T14:22:49;8.80;99.90
11093;DHT22;5600;50.864;6.102;2023-04-06T14:26:00;8.70;99.90
11093;DHT22;5600;50.864;6.102;2023-04-06T14:29:02;8.70;99.90
11093;DHT22;5600;50.864;6.102;2023-04-06T14:32:04;8.70;99.90
11093;DHT22;5600;50.864;6.102;2023-04-06T14:35:05;8.70;99.90
11093;DHT22;5600;50.864;6.102;2023-04-06T14:38:10;8.60;99.90
11093;DHT22;5600;50.864;6.102;2023-04-06T14:41:17;8.60;99.90
11093;DHT22;5600;50.864;6.102;2023-04-06T14:44:46;9.50;99.90
11093;DHT22;5600;50.864;6.102;2023-04-06T14:48:15;8.60;99.90
11093;DHT22;5600;50.864;6.102;2023-04-06T14:51:18;8.60;99.90
11093;DHT22;5600;50.864;6.102;2023-04-06T14:54:18;8.80;99.90
11093;DHT22;5600;50.864;6.102;2023-04-06T14:57:19;8.80;99.90
11093;DHT22;5600;50.864;6.102;2023-04-06T15:05:01;8.70;99.90
11093;DHT22;5600;50.864;6.102;2023-04-06T15:08:01;8.70;99.90
11093;DHT22;5600;50.864;6.102;2023-04-06T15:11:02;8.70;99.90
11093;DHT22;5600;50.864;6.102;2023-04-06T15:14:03;8.70;99.90
11093;DHT22;5600;50.864;6.102;2023-04-06T15:17:29;8.70;99.90
11093;DHT22;5600;50.864;6.102;2023-04-06T15:20:30;8.80;99.90
11093;DHT22;5600;50.864;6.102;2023-04-06T15:23:30;8.80;99.90
11093;DHT22;5600;50.864;6.102;2023-04-06T15:26:33;8.80;99.90
11093;DHT22;5600;50.864;6.102;2023-04-06T15:29:33;8.90;99.90
11093;DHT22;5600;50.864;6.102;2023-04-06T15:32:34;8.80;99.90
11093;DHT22;5600;50.864;6.102;2023-04-06T15:40:46;8.80;99.90
11093;DHT22;5600;50.864;6.102;2023-04-06T15:48:28;8.80;99.90
11093;DHT22;5600;50.864;6.102;2023-04-06T15:51:31;8.70;99.90
11093;DHT22;5600;50.864;6.102;2023-04-06T15:54:32;8.60;99.90
11093;DHT22;5600;50.864;6.102;2023-04-06T15:57:34;8.60;99.90
11093;DHT22;5600;50.864;6.102;2023-04-06T16:00:34;8.50;99.90
11093;DHT22;5600;50.864;6.102;2023-04-06T16:03:35;8.60;99.90
11093;DHT22;5600;50.864;6.102;2023-04-06T16:20:43;8.60;99.90
11093;DHT22;5600;50.864;6.102;2023-04-06T16:23:45;8.50;99.90
11093;DHT22;5600;50.864;6.102;2023-04-06T16:36:09;8.20;99.90
11093;DHT22;5600;50.864;6.102;2023-04-06T16:39:10;8.20;99.90
11093;DHT22;5600;50.864;6.102;2023-04-06T16:42:10;8.20;99.90
11093;DHT22;5600;50.864;6.102;2023-04-06T16:49:28;8.00;99.90
11093;DHT22;5600;50.864;6.102;2023-04-06T16:52:54;8.00;99.90
11093;DHT22;5600;50.864;6.102;2023-04-06T16:57:12;7.90;99.90
11093;DHT22;5600;50.864;6.102;2023-04-06T17:09:13;8.30;99.90
11093;DHT22;5600;50.864;6.102;2023-04-06T17:12:13;8.20;99.90
11093;DHT22;5600;50.864;6.102;2023-04-06T17:15:40;8.10;99.90
11093;DHT22;5600;50.864;6.102;2023-04-06T17:18:43;8.10;99.90
11093;DHT22;5600;50.864;6.102;2023-04-06T17:21:44;8.20;99.90
11093;DHT22;5600;50.864;6.102;2023-04-06T17:24:45;8.20;99.90
11093;DHT22;5600;50.864;6.102;2023-04-06T17:27:46;8.30;99.90
11093;DHT22;5600;50.864;6.102;2023-04-06T17:30:47;8.30;99.90
11093;DHT22;5600;50.864;6.102;2023-04-06T17:33:48;8.40;99.90
11093;DHT22;5600;50.864;6.102;2023-04-06T17:41:32;8.30;99.90
11093;DHT22;5600;50.864;6.102;2023-04-06T17:45:00;8.30;99.90
11093;DHT22;5600;50.864;6.102;2023-04-06T17:49:17;8.30;99.90
11093;DHT22;5600;50.864;6.102;2023-04-06T17:52:18;8.20;99.90
11093;DHT22;5600;50.864;6.102;2023-04-06T17:55:19;8.20;99.90
11093;DHT22;5600;50.864;6.102;2023-04-06T17:58:22;7.80;99.90
11093;DHT22;5600;50.864;6.102;2023-04-06T18:01:23;8.20;99.90
11093;DHT22;5600;50.864;6.102;2023-04-06T18:04:24;8.20;99.90
11093;DHT22;5600;50.864;6.102;2023-04-06T18:10:25;8.20;99.90
11093;DHT22;5600;50.864;6.102;2023-04-06T18:13:26;8.30;99.90
11093;DHT22;5600;50.864;6.102;2023-04-06T18:16:27;8.30;99.90
11093;DHT22;5600;50.864;6.102;2023-04-06T18:19:29;8.30;99.90
11093;DHT22;5600;50.864;6.102;2023-04-06T18:22:34;8.40;99.90
11093;DHT22;5600;50.864;6.102;2023-04-06T18:25:39;8.40;99.90
11093;DHT22;5600;50.864;6.102;2023-04-06T18:28:40;8.30;99.90
11093;DHT22;5600;50.864;6.102;2023-04-06T18:31:40;8.30;99.90
11093;DHT22;5600;50.864;6.102;2023-04-06T18:37:44;8.40;99.90
11093;DHT22;5600;50.864;6.102;2023-04-06T18:43:46;8.40;99.90
11093;DHT22;5600;50.864;6.102;2023-04-06T18:46:47;8.40;99.90
11093;DHT22;5600;50.864;6.102;2023-04-06T18:49:48;8.50;99.90
11093;DHT22;5600;50.864;6.102;2023-04-06T18:52:50;8.40;99.90
11093;DHT22;5600;50.864;6.102;2023-04-06T18:55:51;8.40;99.90
11093;DHT22;5600;50.864;6.102;2023-04-06T18:58:52;8.40;99.90
11093;DHT22;5600;50.864;6.102;2023-04-06T19:01:53;8.40;99.90
11093;DHT22;5600;50.864;6.102;2023-04-06T19:04:53;8.40;99.90
11093;DHT22;5600;50.864;6.102;2023-04-06T19:07:54;8.40;99.90
11093;DHT22;5600;50.864;6.102;2023-04-06T19:10:55;8.50;99.90
11093;DHT22;5600;50.864;6.102;2023-04-06T19:13:56;8.50;99.90
11093;DHT22;5600;50.864;6.102;2023-04-06T19:16:56;8.50;99.90
11093;DHT22;5600;50.864;6.102;2023-04-06T19:19:57;8.50;99.90
11093;DHT22;5600;50.864;6.102;2023-04-06T19:22:58;8.50;99.90
11093;DHT22;5600;50.864;6.102;2023-04-06T19:25:59;8.50;99.90
11093;DHT22;5600;50.864;6.102;2023-04-06T19:29:00;8.40;99.90
11093;DHT22;5600;50.864;6.102;2023-04-06T19:32:01;8.50;99.90
11093;DHT22;5600;50.864;6.102;2023-04-06T19:35:02;8.60;99.90
11093;DHT22;5600;50.864;6.102;2023-04-06T19:38:05;8.60;99.90
11093;DHT22;5600;50.864;6.102;2023-04-06T19:41:06;8.60;99.90
11093;DHT22;5600;50.864;6.102;2023-04-06T19:44:07;8.70;99.90
11093;DHT22;5600;50.864;6.102;2023-04-06T19:47:08;8.80;99.90
11093;DHT22;5600;50.864;6.102;2023-04-06T19:50:11;8.80;99.90
11093;DHT22;5600;50.864;6.102;2023-04-06T19:53:12;8.90;99.90
11093;DHT22;5600;50.864;6.102;2023-04-06T19:56:12;8.80;99.90
11093;DHT22;5600;50.864;6.102;2023-04-06T19:59:15;8.80;99.90
11093;DHT22;5600;50.864;6.102;2023-04-06T20:05:18;8.80;99.90
11093;DHT22;5600;50.864;6.102;2023-04-06T20:08:20;8.80;99.90
11093;DHT22;5600;50.864;6.102;2023-04-06T20:11:21;8.70;99.90
11093;DHT22;5600;50.864;6.102;2023-04-06T20:14:21;8.80;99.90
11093;DHT22;5600;50.864;6.102;2023-04-06T20:17:23;8.80;99.90
11093;DHT22;5600;50.864;6.102;2023-04-06T20:20:24;8.80;99.90
11093;DHT22;5600;50.864;6.102;2023-04-06T20:23:25;8.90;99.90
11093;DHT22;5600;50.864;6.102;2023-04-06T20:26:26;9.00;99.90
11093;DHT22;5600;50.864;6.102;2023-04-06T20:29:27;9.20;99.90
11093;DHT22;5600;50.864;6.102;2023-04-06T20:32:27;9.20;99.90
11093;DHT22;5600;50.864;6.102;2023-04-06T20:35:28;9.30;99.90
11093;DHT22;5600;50.864;6.102;2023-04-06T20:38:30;9.30;99.90
11093;DHT22;5600;50.864;6.102;2023-04-06T20:41:31;9.40;99.90
11093;DHT22;5600;50.864;6.102;2023-04-06T20:44:32;9.40;99.90
11093;DHT22;5600;50.864;6.102;2023-04-06T20:47:33;9.40;99.90
11093;DHT22;5600;50.864;6.102;2023-04-06T20:50:36;9.40;99.90
11093;DHT22;5600;50.864;6.102;2023-04-06T20:53:37;9.40;99.90
11093;DHT22;5600;50.864;6.102;2023-04-06T20:56:38;9.40;99.90
11093;DHT22;5600;50.864;6.102;2023-04-06T20:59:38;9.40;99.90
11093;DHT22;5600;50.864;6.102;2023-04-06T21:02:39;9.40;99.90
11093;DHT22;5600;50.864;6.102;2023-04-06T21:05:40;9.40;99.90
11093;DHT22;5600;50.864;6.102;2023-04-06T21:08:41;9.40;99.90
11093;DHT22;5600;50.864;6.102;2023-04-06T21:11:41;9.40;99.90
11093;DHT22;5600;50.864;6.102;2023-04-06T21:14:42;9.40;99.90
11093;DHT22;5600;50.864;6.102;2023-04-06T21:17:43;9.40;99.90
11093;DHT22;5600;50.864;6.102;2023-04-06T21:20:43;9.50;99.90
11093;DHT22;5600;50.864;6.102;2023-04-06T21:23:44;9.50;99.90
11093;DHT22;5600;50.864;6.102;2023-04-06T21:26:45;9.50;99.90
11093;DHT22;5600;50.864;6.102;2023-04-06T21:29:46;9.40;99.90
11093;DHT22;5600;50.864;6.102;2023-04-06T21:32:47;9.40;99.90
11093;DHT22;5600;50.864;6.102;2023-04-06T21:35:47;9.30;99.90
11093;DHT22;5600;50.864;6.102;2023-04-06T21:38:48;9.30;99.90
11093;DHT22;5600;50.864;6.102;2023-04-06T21:41:49;9.30;99.90
11093;DHT22;5600;50.864;6.102;2023-04-06T21:44:50;9.20;99.90
11093;DHT22;5600;50.864;6.102;2023-04-06T21:47:51;9.20;99.90
11093;DHT22;5600;50.864;6.102;2023-04-06T21:50:51;9.20;99.90
11093;DHT22;5600;50.864;6.102;2023-04-06T21:53:52;9.20;99.90
11093;DHT22;5600;50.864;6.102;2023-04-06T21:56:54;9.10;99.90
11093;DHT22;5600;50.864;6.102;2023-04-06T21:59:55;9.10;99.90
11093;DHT22;5600;50.864;6.102;2023-04-06T22:02:56;9.10;99.90
11093;DHT22;5600;50.864;6.102;2023-04-06T22:05:57;9.00;99.90
11093;DHT22;5600;50.864;6.102;2023-04-06T22:08:57;9.00;99.90
11093;DHT22;5600;50.864;6.102;2023-04-06T22:11:59;9.10;99.90
11093;DHT22;5600;50.864;6.102;2023-04-06T22:15:00;9.10;99.90
11093;DHT22;5600;50.864;6.102;2023-04-06T22:18:01;9.10;99.90
11093;DHT22;5600;50.864;6.102;2023-04-06T22:21:01;9.10;99.90
11093;DHT22;5600;50.864;6.102;2023-04-06T22:24:05;9.10;99.90
11093;DHT22;5600;50.864;6.102;2023-04-06T22:27:06;9.10;99.90
11093;DHT22;5600;50.864;6.102;2023-04-06T22:30:07;9.10;99.90
11093;DHT22;5600;50.864;6.102;2023-04-06T22:33:08;9.10;99.90
11093;DHT22;5600;50.864;6.102;2023-04-06T22:36:08;9.10;99.90
11093;DHT22;5600;50.864;6.102;2023-04-06T22:39:09;9.90;99.90
11093;DHT22;5600;50.864;6.102;2023-04-06T22:42:10;9.00;99.90
11093;DHT22;5600;50.864;6.102;2023-04-06T22:45:11;9.00;99.90
11093;DHT22;5600;50.864;6.102;2023-04-06T22:48:11;9.10;99.90
11093;DHT22;5600;50.864;6.102;2023-04-06T22:51:12;9.10;99.90
11093;DHT22;5600;50.864;6.102;2023-04-06T22:54:13;9.00;99.90
11093;DHT22;5600;50.864;6.102;2023-04-06T22:57:14;9.00;99.90
11093;DHT22;5600;50.864;6.102;2023-04-06T23:00:15;9.00;99.90
11093;DHT22;5600;50.864;6.102;2023-04-06T23:03:16;9.00;99.90
11093;DHT22;5600;50.864;6.102;2023-04-06T23:06:17;9.00;99.90
11093;DHT22;5600;50.864;6.102;2023-04-06T23:09:17;9.00;99.90
11093;DHT22;5600;50.864;6.102;2023-04-06T23:12:18;9.00;99.90
11093;DHT22;5600;50.864;6.102;2023-04-06T23:15:19;9.00;99.90
11093;DHT22;5600;50.864;6.102;2023-04-06T23:18:19;9.00;99.90
11093;DHT22;5600;50.864;6.102;2023-04-06T23:24:21;9.00;99.90
11093;DHT22;5600;50.864;6.102;2023-04-06T23:27:22;9.00;99.90
11093;DHT22;5600;50.864;6.102;2023-04-06T23:33:24;9.00;99.90
11093;DHT22;5600;50.864;6.102;2023-04-06T23:36:26;8.90;99.90
11093;DHT22;5600;50.864;6.102;2023-04-06T23:39:30;9.00;99.90
11093;DHT22;5600;50.864;6.102;2023-04-06T23:42:30;9.00;99.90
11093;DHT22;5600;50.864;6.102;2023-04-06T23:45:31;9.00;99.90
11093;DHT22;5600;50.864;6.102;2023-04-06T23:48:32;9.00;99.90
11093;DHT22;5600;50.864;6.102;2023-04-06T23:51:33;9.00;99.90
11093;DHT22;5600;50.864;6.102;2023-04-06T23:54:33;9.10;99.90